TAF KRME
AMD KRME 081912Z 0819/0918 VRB03KT 1SM -SN BR OVC008 FM090200 28004KT P6SM BKN015 FM090500 28004KT 2SM -SHSN BR OVC012 FM091000 29005KT P6SM BKN045=
METAR KRME
WC KRME
WS KRME
WV KRME